sensor_id;sensor_type;location;lat;lon;timestamp;temperature;humidity
1702;DHT22;848;48.354;10.064;2023-03-01T00:00:54;1.20;99.90
1702;DHT22;848;48.354;10.064;2023-03-01T00:03:26;1.30;99.90
1702;DHT22;848;48.354;10.064;2023-03-01T00:05:55;1.30;99.90
1702;DHT22;848;48.354;10.064;2023-03-01T00:08:24;1.30;99.90
1702;DHT22;848;48.354;10.064;2023-03-01T00:11:00;1.30;99.90
1702;DHT22;848;48.354;10.064;2023-03-01T00:13:29;1.40;99.90
1702;DHT22;848;48.354;10.064;2023-03-01T00:15:56;1.40;99.90
1702;DHT22;848;48.354;10.064;2023-03-01T00:18:24;1.30;99.90
1702;DHT22;848;48.354;10.064;2023-03-01T00:20:51;1.30;99.90
1702;DHT22;848;48.354;10.064;2023-03-01T00:23:18;1.40;99.90
1702;DHT22;848;48.354;10.064;2023-03-01T00:25:47;1.40;99.90
1702;DHT22;848;48.354;10.064;2023-03-01T00:28:14;1.40;99.90
1702;DHT22;848;48.354;10.064;2023-03-01T00:30:41;1.40;99.90
1702;DHT22;848;48.354;10.064;2023-03-01T00:33:08;1.50;99.90
1702;DHT22;848;48.354;10.064;2023-03-01T00:35:36;1.50;99.90
1702;DHT22;848;48.354;10.064;2023-03-01T00:38:03;1.50;99.90
1702;DHT22;848;48.354;10.064;2023-03-01T00:40:32;1.50;99.90
1702;DHT22;848;48.354;10.064;2023-03-01T00:43:01;1.50;99.90
1702;DHT22;848;48.354;10.064;2023-03-01T00:45:29;1.50;99.90
1702;DHT22;848;48.354;10.064;2023-03-01T00:47:57;1.60;99.90
1702;DHT22;848;48.354;10.064;2023-03-01T00:50:24;1.60;99.90
1702;DHT22;848;48.354;10.064;2023-03-01T00:52:54;1.50;99.90
1702;DHT22;848;48.354;10.064;2023-03-01T00:55:21;1.50;99.90
1702;DHT22;848;48.354;10.064;2023-03-01T00:57:49;1.50;99.90
1702;DHT22;848;48.354;10.064;2023-03-01T01:00:18;1.60;99.90
1702;DHT22;848;48.354;10.064;2023-03-01T01:02:45;1.60;99.90
1702;DHT22;848;48.354;10.064;2023-03-01T01:05:13;1.70;99.90
1702;DHT22;848;48.354;10.064;2023-03-01T01:07:40;1.60;99.90
1702;DHT22;848;48.354;10.064;2023-03-01T01:10:08;1.50;99.90
1702;DHT22;848;48.354;10.064;2023-03-01T01:12:43;1.50;99.90
1702;DHT22;848;48.354;10.064;2023-03-01T01:15:10;1.50;99.90
1702;DHT22;848;48.354;10.064;2023-03-01T01:17:43;1.50;99.90
1702;DHT22;848;48.354;10.064;2023-03-01T01:20:11;1.50;99.90
1702;DHT22;848;48.354;10.064;2023-03-01T01:22:38;1.50;99.90
1702;DHT22;848;48.354;10.064;2023-03-01T01:25:05;1.60;99.90
1702;DHT22;848;48.354;10.064;2023-03-01T01:27:32;1.50;99.90
1702;DHT22;848;48.354;10.064;2023-03-01T01:29:59;1.50;99.90
1702;DHT22;848;48.354;10.064;2023-03-01T01:32:26;1.40;99.90
1702;DHT22;848;48.354;10.064;2023-03-01T01:34:54;1.40;99.90
1702;DHT22;848;48.354;10.064;2023-03-01T01:37:21;1.40;99.90
1702;DHT22;848;48.354;10.064;2023-03-01T01:39:48;1.40;99.90
1702;DHT22;848;48.354;10.064;2023-03-01T01:42:16;1.40;99.90
1702;DHT22;848;48.354;10.064;2023-03-01T01:44:46;1.30;99.90
1702;DHT22;848;48.354;10.064;2023-03-01T01:47:15;1.30;99.90
1702;DHT22;848;48.354;10.064;2023-03-01T01:49:46;1.30;99.90
1702;DHT22;848;48.354;10.064;2023-03-01T01:52:18;1.40;99.90
1702;DHT22;848;48.354;10.064;2023-03-01T01:54:50;1.30;99.90
1702;DHT22;848;48.354;10.064;2023-03-01T01:57:22;1.40;99.90
1702;DHT22;848;48.354;10.064;2023-03-01T01:59:53;1.40;99.90
1702;DHT22;848;48.354;10.064;2023-03-01T02:02:21;1.30;99.90
1702;DHT22;848;48.354;10.064;2023-03-01T02:04:50;1.30;99.90
1702;DHT22;848;48.354;10.064;2023-03-01T02:07:22;1.30;99.90
1702;DHT22;848;48.354;10.064;2023-03-01T02:09:52;1.30;99.90
1702;DHT22;848;48.354;10.064;2023-03-01T02:12:21;1.30;99.90
1702;DHT22;848;48.354;10.064;2023-03-01T02:14:49;1.30;99.90
1702;DHT22;848;48.354;10.064;2023-03-01T02:17:17;1.30;99.90
1702;DHT22;848;48.354;10.064;2023-03-01T02:19:56;1.30;99.90
1702;DHT22;848;48.354;10.064;2023-03-01T02:22:30;1.30;99.90
1702;DHT22;848;48.354;10.064;2023-03-01T02:25:06;1.30;99.90
1702;DHT22;848;48.354;10.064;2023-03-01T02:27:41;1.30;99.90
1702;DHT22;848;48.354;10.064;2023-03-01T02:30:11;1.20;99.90
1702;DHT22;848;48.354;10.064;2023-03-01T02:32:39;1.20;99.90
1702;DHT22;848;48.354;10.064;2023-03-01T02:35:08;1.30;99.90
1702;DHT22;848;48.354;10.064;2023-03-01T02:37:36;1.30;99.90
1702;DHT22;848;48.354;10.064;2023-03-01T02:40:06;1.30;99.90
1702;DHT22;848;48.354;10.064;2023-03-01T02:42:40;1.30;99.90
1702;DHT22;848;48.354;10.064;2023-03-01T02:45:13;1.20;99.90
1702;DHT22;848;48.354;10.064;2023-03-01T02:47:40;1.20;99.90
1702;DHT22;848;48.354;10.064;2023-03-01T02:50:15;1.20;99.90
1702;DHT22;848;48.354;10.064;2023-03-01T02:52:47;1.20;99.90
1702;DHT22;848;48.354;10.064;2023-03-01T02:55:18;1.30;99.90
1702;DHT22;848;48.354;10.064;2023-03-01T02:57:46;1.30;99.90
1702;DHT22;848;48.354;10.064;2023-03-01T03:00:20;1.30;99.90
1702;DHT22;848;48.354;10.064;2023-03-01T03:02:49;1.40;99.90
1702;DHT22;848;48.354;10.064;2023-03-01T03:05:18;1.70;99.90
1702;DHT22;848;48.354;10.064;2023-03-01T03:07:46;1.50;99.90
1702;DHT22;848;48.354;10.064;2023-03-01T03:10:15;1.50;99.90
1702;DHT22;848;48.354;10.064;2023-03-01T03:12:48;1.50;99.90
1702;DHT22;848;48.354;10.064;2023-03-01T03:15:16;1.50;99.90
1702;DHT22;848;48.354;10.064;2023-03-01T03:17:43;1.50;99.90
1702;DHT22;848;48.354;10.064;2023-03-01T03:20:13;1.50;99.90
1702;DHT22;848;48.354;10.064;2023-03-01T03:22:45;1.40;99.90
1702;DHT22;848;48.354;10.064;2023-03-01T03:25:12;1.40;99.90
1702;DHT22;848;48.354;10.064;2023-03-01T03:27:40;1.50;99.90
1702;DHT22;848;48.354;10.064;2023-03-01T03:30:09;1.50;99.90
1702;DHT22;848;48.354;10.064;2023-03-01T03:32:39;1.50;99.90
1702;DHT22;848;48.354;10.064;2023-03-01T03:35:08;1.50;99.90
1702;DHT22;848;48.354;10.064;2023-03-01T03:37:40;1.60;99.90
1702;DHT22;848;48.354;10.064;2023-03-01T03:40:24;1.60;99.90
1702;DHT22;848;48.354;10.064;2023-03-01T03:42:51;1.70;99.90
1702;DHT22;848;48.354;10.064;2023-03-01T03:45:18;1.70;99.90
1702;DHT22;848;48.354;10.064;2023-03-01T03:47:47;1.80;99.90
1702;DHT22;848;48.354;10.064;2023-03-01T03:50:15;1.60;99.90
1702;DHT22;848;48.354;10.064;2023-03-01T03:52:42;1.60;99.90
1702;DHT22;848;48.354;10.064;2023-03-01T03:55:11;1.50;99.90
1702;DHT22;848;48.354;10.064;2023-03-01T03:57:38;1.50;99.90
1702;DHT22;848;48.354;10.064;2023-03-01T04:00:07;1.60;99.90
1702;DHT22;848;48.354;10.064;2023-03-01T04:02:38;1.60;99.90
1702;DHT22;848;48.354;10.064;2023-03-01T04:05:08;1.80;99.90
1702;DHT22;848;48.354;10.064;2023-03-01T04:07:35;1.60;99.90
1702;DHT22;848;48.354;10.064;2023-03-01T04:10:03;1.70;99.90
1702;DHT22;848;48.354;10.064;2023-03-01T04:12:31;1.60;99.90
1702;DHT22;848;48.354;10.064;2023-03-01T04:14:59;1.50;99.90
1702;DHT22;848;48.354;10.064;2023-03-01T04:17:26;1.60;99.90
1702;DHT22;848;48.354;10.064;2023-03-01T04:19:53;1.60;99.90
1702;DHT22;848;48.354;10.064;2023-03-01T04:22:21;1.60;99.90
1702;DHT22;848;48.354;10.064;2023-03-01T04:24:48;1.60;99.90
1702;DHT22;848;48.354;10.064;2023-03-01T04:27:15;1.60;99.90
1702;DHT22;848;48.354;10.064;2023-03-01T04:29:42;1.60;99.90
1702;DHT22;848;48.354;10.064;2023-03-01T04:32:09;1.70;99.90
1702;DHT22;848;48.354;10.064;2023-03-01T04:34:36;1.50;99.90
1702;DHT22;848;48.354;10.064;2023-03-01T04:37:03;1.50;99.90
1702;DHT22;848;48.354;10.064;2023-03-01T04:39:31;1.50;99.90
1702;DHT22;848;48.354;10.064;2023-03-01T04:41:58;1.50;99.90
1702;DHT22;848;48.354;10.064;2023-03-01T04:44:25;1.50;99.90
1702;DHT22;848;48.354;10.064;2023-03-01T04:46:55;1.50;99.90
1702;DHT22;848;48.354;10.064;2023-03-01T04:49:22;1.60;99.90
1702;DHT22;848;48.354;10.064;2023-03-01T04:51:49;1.50;99.90
1702;DHT22;848;48.354;10.064;2023-03-01T04:54:16;1.60;99.90
1702;DHT22;848;48.354;10.064;2023-03-01T04:56:44;1.50;99.90
1702;DHT22;848;48.354;10.064;2023-03-01T04:59:11;1.40;99.90
1702;DHT22;848;48.354;10.064;2023-03-01T05:01:38;1.40;99.90
1702;DHT22;848;48.354;10.064;2023-03-01T05:04:08;1.50;99.90
1702;DHT22;848;48.354;10.064;2023-03-01T05:06:38;1.50;99.90
1702;DHT22;848;48.354;10.064;2023-03-01T05:09:05;1.60;99.90
1702;DHT22;848;48.354;10.064;2023-03-01T05:11:32;1.60;99.90
1702;DHT22;848;48.354;10.064;2023-03-01T05:14:03;1.60;99.90
1702;DHT22;848;48.354;10.064;2023-03-01T05:16:30;1.50;99.90
1702;DHT22;848;48.354;10.064;2023-03-01T05:18:57;1.60;99.90
1702;DHT22;848;48.354;10.064;2023-03-01T05:21:24;1.60;99.90
1702;DHT22;848;48.354;10.064;2023-03-01T05:23:51;1.60;99.90
1702;DHT22;848;48.354;10.064;2023-03-01T05:26:21;1.60;99.90
1702;DHT22;848;48.354;10.064;2023-03-01T05:28:52;1.70;99.90
1702;DHT22;848;48.354;10.064;2023-03-01T05:31:23;1.70;99.90
1702;DHT22;848;48.354;10.064;2023-03-01T05:33:50;1.70;99.90
1702;DHT22;848;48.354;10.064;2023-03-01T05:36:18;1.60;99.90
1702;DHT22;848;48.354;10.064;2023-03-01T05:38:45;1.60;99.90
1702;DHT22;848;48.354;10.064;2023-03-01T05:41:14;1.50;99.90
1702;DHT22;848;48.354;10.064;2023-03-01T05:43:42;1.50;99.90
1702;DHT22;848;48.354;10.064;2023-03-01T05:46:10;1.50;99.90
1702;DHT22;848;48.354;10.064;2023-03-01T05:48:40;1.50;99.90
1702;DHT22;848;48.354;10.064;2023-03-01T05:51:10;1.50;99.90
1702;DHT22;848;48.354;10.064;2023-03-01T05:53:39;1.50;99.90
1702;DHT22;848;48.354;10.064;2023-03-01T05:56:06;1.50;99.90
1702;DHT22;848;48.354;10.064;2023-03-01T05:58:33;1.40;99.90
1702;DHT22;848;48.354;10.064;2023-03-01T06:01:00;1.30;99.90
1702;DHT22;848;48.354;10.064;2023-03-01T06:03:26;1.30;99.90
1702;DHT22;848;48.354;10.064;2023-03-01T06:05:57;1.20;99.90
1702;DHT22;848;48.354;10.064;2023-03-01T06:08:24;1.20;99.90
1702;DHT22;848;48.354;10.064;2023-03-01T06:10:52;1.20;99.90
1702;DHT22;848;48.354;10.064;2023-03-01T06:13:19;1.20;99.90
1702;DHT22;848;48.354;10.064;2023-03-01T06:15:46;1.10;99.90
1702;DHT22;848;48.354;10.064;2023-03-01T06:18:13;1.10;99.90
1702;DHT22;848;48.354;10.064;2023-03-01T06:20:40;1.10;99.90
1702;DHT22;848;48.354;10.064;2023-03-01T06:23:08;1.20;99.90
1702;DHT22;848;48.354;10.064;2023-03-01T06:25:35;1.10;99.90
1702;DHT22;848;48.354;10.064;2023-03-01T06:28:02;1.10;99.90
1702;DHT22;848;48.354;10.064;2023-03-01T06:30:29;1.10;99.90
1702;DHT22;848;48.354;10.064;2023-03-01T06:32:56;1.10;99.90
1702;DHT22;848;48.354;10.064;2023-03-01T06:35:26;1.10;99.90
1702;DHT22;848;48.354;10.064;2023-03-01T06:37:55;1.10;99.90
1702;DHT22;848;48.354;10.064;2023-03-01T06:40:24;1.20;99.90
1702;DHT22;848;48.354;10.064;2023-03-01T06:42:51;1.20;99.90
1702;DHT22;848;48.354;10.064;2023-03-01T06:45:19;1.20;99.90
1702;DHT22;848;48.354;10.064;2023-03-01T06:47:46;1.40;99.90
1702;DHT22;848;48.354;10.064;2023-03-01T06:50:14;1.10;99.90
1702;DHT22;848;48.354;10.064;2023-03-01T06:52:41;1.20;99.90
1702;DHT22;848;48.354;10.064;2023-03-01T06:55:10;1.20;99.90
1702;DHT22;848;48.354;10.064;2023-03-01T06:57:39;1.30;99.90
1702;DHT22;848;48.354;10.064;2023-03-01T07:00:07;1.30;99.90
1702;DHT22;848;48.354;10.064;2023-03-01T07:02:34;1.30;99.90
1702;DHT22;848;48.354;10.064;2023-03-01T07:05:01;1.20;99.90
1702;DHT22;848;48.354;10.064;2023-03-01T07:07:28;1.10;99.90
1702;DHT22;848;48.354;10.064;2023-03-01T07:09:55;1.10;99.90
1702;DHT22;848;48.354;10.064;2023-03-01T07:12:22;1.10;99.90
1702;DHT22;848;48.354;10.064;2023-03-01T07:14:50;1.10;99.90
1702;DHT22;848;48.354;10.064;2023-03-01T07:17:17;1.10;99.90
1702;DHT22;848;48.354;10.064;2023-03-01T07:19:44;1.10;99.90
1702;DHT22;848;48.354;10.064;2023-03-01T07:22:11;1.10;99.90
1702;DHT22;848;48.354;10.064;2023-03-01T07:24:38;1.10;99.90
1702;DHT22;848;48.354;10.064;2023-03-01T07:27:04;1.00;99.90
1702;DHT22;848;48.354;10.064;2023-03-01T07:29:31;1.00;99.90
1702;DHT22;848;48.354;10.064;2023-03-01T07:32:00;1.00;99.90
1702;DHT22;848;48.354;10.064;2023-03-01T07:34:27;1.00;99.90
1702;DHT22;848;48.354;10.064;2023-03-01T07:36:54;1.00;99.90
1702;DHT22;848;48.354;10.064;2023-03-01T07:39:21;1.00;99.90
1702;DHT22;848;48.354;10.064;2023-03-01T07:41:49;1.10;99.90
1702;DHT22;848;48.354;10.064;2023-03-01T07:44:16;1.20;99.90
1702;DHT22;848;48.354;10.064;2023-03-01T07:46:43;1.30;99.90
1702;DHT22;848;48.354;10.064;2023-03-01T07:49:11;1.40;99.90
1702;DHT22;848;48.354;10.064;2023-03-01T07:51:38;1.30;99.90
1702;DHT22;848;48.354;10.064;2023-03-01T07:54:05;1.30;99.90
1702;DHT22;848;48.354;10.064;2023-03-01T07:56:32;1.30;99.90
1702;DHT22;848;48.354;10.064;2023-03-01T07:58:59;1.80;99.90
1702;DHT22;848;48.354;10.064;2023-03-01T08:01:26;1.40;99.90
1702;DHT22;848;48.354;10.064;2023-03-01T08:03:53;1.40;99.90
1702;DHT22;848;48.354;10.064;2023-03-01T08:06:21;1.40;99.90
1702;DHT22;848;48.354;10.064;2023-03-01T08:08:48;1.50;99.90
1702;DHT22;848;48.354;10.064;2023-03-01T08:11:16;1.70;99.90
1702;DHT22;848;48.354;10.064;2023-03-01T08:13:43;1.70;99.90
1702;DHT22;848;48.354;10.064;2023-03-01T08:16:11;1.70;99.90
1702;DHT22;848;48.354;10.064;2023-03-01T08:18:39;1.60;99.90
1702;DHT22;848;48.354;10.064;2023-03-01T08:21:07;1.60;99.90
1702;DHT22;848;48.354;10.064;2023-03-01T08:23:36;1.70;99.90
1702;DHT22;848;48.354;10.064;2023-03-01T08:26:05;1.70;99.90
1702;DHT22;848;48.354;10.064;2023-03-01T08:28:32;1.70;99.90
1702;DHT22;848;48.354;10.064;2023-03-01T08:30:59;1.70;99.90
1702;DHT22;848;48.354;10.064;2023-03-01T08:33:26;1.60;99.90
1702;DHT22;848;48.354;10.064;2023-03-01T08:36:02;1.70;99.90
1702;DHT22;848;48.354;10.064;2023-03-01T08:38:29;1.60;99.90
1702;DHT22;848;48.354;10.064;2023-03-01T08:41:00;1.70;99.90
1702;DHT22;848;48.354;10.064;2023-03-01T08:43:28;1.70;99.90
1702;DHT22;848;48.354;10.064;2023-03-01T08:45:55;1.70;99.90
1702;DHT22;848;48.354;10.064;2023-03-01T08:48:22;1.80;99.90
1702;DHT22;848;48.354;10.064;2023-03-01T08:50:49;1.70;99.90
1702;DHT22;848;48.354;10.064;2023-03-01T08:53:16;1.90;99.90
1702;DHT22;848;48.354;10.064;2023-03-01T08:55:43;1.90;99.90
1702;DHT22;848;48.354;10.064;2023-03-01T08:58:11;2.20;99.90
1702;DHT22;848;48.354;10.064;2023-03-01T09:00:38;2.00;99.90
1702;DHT22;848;48.354;10.064;2023-03-01T09:03:06;2.10;99.90
1702;DHT22;848;48.354;10.064;2023-03-01T09:05:33;2.10;99.90
1702;DHT22;848;48.354;10.064;2023-03-01T09:08:01;2.20;99.90
1702;DHT22;848;48.354;10.064;2023-03-01T09:10:28;2.30;99.90
1702;DHT22;848;48.354;10.064;2023-03-01T09:12:55;2.40;99.90
1702;DHT22;848;48.354;10.064;2023-03-01T09:15:23;2.30;99.90
1702;DHT22;848;48.354;10.064;2023-03-01T09:17:50;2.10;99.90
1702;DHT22;848;48.354;10.064;2023-03-01T09:20:17;2.10;99.90
1702;DHT22;848;48.354;10.064;2023-03-01T09:22:44;2.10;99.90
1702;DHT22;848;48.354;10.064;2023-03-01T09:25:11;2.10;99.90
1702;DHT22;848;48.354;10.064;2023-03-01T09:27:38;2.00;99.90
1702;DHT22;848;48.354;10.064;2023-03-01T09:30:06;2.10;99.90
1702;DHT22;848;48.354;10.064;2023-03-01T09:32:34;2.10;99.90
1702;DHT22;848;48.354;10.064;2023-03-01T09:35:01;2.20;99.90
1702;DHT22;848;48.354;10.064;2023-03-01T09:37:30;2.50;99.90
1702;DHT22;848;48.354;10.064;2023-03-01T09:39:57;2.30;99.90
1702;DHT22;848;48.354;10.064;2023-03-01T09:42:25;2.40;99.90
1702;DHT22;848;48.354;10.064;2023-03-01T09:44:54;2.50;99.90
1702;DHT22;848;48.354;10.064;2023-03-01T09:47:26;2.40;99.90
1702;DHT22;848;48.354;10.064;2023-03-01T09:50:01;2.50;99.90
1702;DHT22;848;48.354;10.064;2023-03-01T09:52:34;2.50;99.90
1702;DHT22;848;48.354;10.064;2023-03-01T09:55:09;2.60;99.90
1702;DHT22;848;48.354;10.064;2023-03-01T09:57:41;2.40;99.90
1702;DHT22;848;48.354;10.064;2023-03-01T10:00:30;2.10;99.90
1702;DHT22;848;48.354;10.064;2023-03-01T10:03:06;2.20;99.90
1702;DHT22;848;48.354;10.064;2023-03-01T10:05:44;2.10;99.90
1702;DHT22;848;48.354;10.064;2023-03-01T10:08:30;2.10;99.90
1702;DHT22;848;48.354;10.064;2023-03-01T10:11:01;2.10;99.90
1702;DHT22;848;48.354;10.064;2023-03-01T10:13:35;2.20;99.90
1702;DHT22;848;48.354;10.064;2023-03-01T10:16:12;2.30;99.90
1702;DHT22;848;48.354;10.064;2023-03-01T10:18:41;2.40;99.90
1702;DHT22;848;48.354;10.064;2023-03-01T10:21:15;2.40;99.90
1702;DHT22;848;48.354;10.064;2023-03-01T10:23:44;2.60;99.90
1702;DHT22;848;48.354;10.064;2023-03-01T10:26:23;2.70;99.90
1702;DHT22;848;48.354;10.064;2023-03-01T10:28:59;2.50;99.90
1702;DHT22;848;48.354;10.064;2023-03-01T10:31:36;2.40;99.90
1702;DHT22;848;48.354;10.064;2023-03-01T10:34:09;2.50;99.90
1702;DHT22;848;48.354;10.064;2023-03-01T10:36:39;2.50;99.90
1702;DHT22;848;48.354;10.064;2023-03-01T10:39:13;2.50;99.90
1702;DHT22;848;48.354;10.064;2023-03-01T10:41:53;2.60;99.90
1702;DHT22;848;48.354;10.064;2023-03-01T10:44:39;2.60;99.90
1702;DHT22;848;48.354;10.064;2023-03-01T10:47:16;2.70;99.90
1702;DHT22;848;48.354;10.064;2023-03-01T10:49:59;2.70;99.90
1702;DHT22;848;48.354;10.064;2023-03-01T10:52:33;2.80;99.90
1702;DHT22;848;48.354;10.064;2023-03-01T10:55:03;3.00;99.90
1702;DHT22;848;48.354;10.064;2023-03-01T10:57:34;3.10;99.90
1702;DHT22;848;48.354;10.064;2023-03-01T11:00:18;3.20;99.90
1702;DHT22;848;48.354;10.064;2023-03-01T11:03:01;3.40;99.90
1702;DHT22;848;48.354;10.064;2023-03-01T11:05:29;3.50;99.90
1702;DHT22;848;48.354;10.064;2023-03-01T11:08:01;3.20;99.90
1702;DHT22;848;48.354;10.064;2023-03-01T11:10:30;3.30;99.90
1702;DHT22;848;48.354;10.064;2023-03-01T11:13:08;3.20;99.90
1702;DHT22;848;48.354;10.064;2023-03-01T11:15:39;3.00;99.90
1702;DHT22;848;48.354;10.064;2023-03-01T11:18:19;3.10;99.90
1702;DHT22;848;48.354;10.064;2023-03-01T11:20:46;3.20;99.90
1702;DHT22;848;48.354;10.064;2023-03-01T11:23:16;3.10;99.90
1702;DHT22;848;48.354;10.064;2023-03-01T11:25:47;3.10;99.90
1702;DHT22;848;48.354;10.064;2023-03-01T11:28:19;3.10;99.90
1702;DHT22;848;48.354;10.064;2023-03-01T11:30:51;3.10;99.90
1702;DHT22;848;48.354;10.064;2023-03-01T11:33:29;3.30;99.90
1702;DHT22;848;48.354;10.064;2023-03-01T11:36:02;3.40;99.90
1702;DHT22;848;48.354;10.064;2023-03-01T11:38:35;3.40;99.90
1702;DHT22;848;48.354;10.064;2023-03-01T11:41:07;3.50;99.90
1702;DHT22;848;48.354;10.064;2023-03-01T11:43:37;3.60;99.90
1702;DHT22;848;48.354;10.064;2023-03-01T11:49:47;3.30;99.90
1702;DHT22;848;48.354;10.064;2023-03-01T11:52:23;3.30;99.90
1702;DHT22;848;48.354;10.064;2023-03-01T11:55:11;3.40;99.90
1702;DHT22;848;48.354;10.064;2023-03-01T11:57:52;3.50;99.90
1702;DHT22;848;48.354;10.064;2023-03-01T12:00:39;3.60;99.90
1702;DHT22;848;48.354;10.064;2023-03-01T12:03:30;3.80;99.90
1702;DHT22;848;48.354;10.064;2023-03-01T12:06:18;3.80;99.90
1702;DHT22;848;48.354;10.064;2023-03-01T12:08:55;3.90;99.90
1702;DHT22;848;48.354;10.064;2023-03-01T12:11:29;4.00;99.90
1702;DHT22;848;48.354;10.064;2023-03-01T12:14:28;4.10;99.90
1702;DHT22;848;48.354;10.064;2023-03-01T12:20:25;4.10;99.90
1702;DHT22;848;48.354;10.064;2023-03-01T12:23:09;4.20;99.90
1702;DHT22;848;48.354;10.064;2023-03-01T12:25:38;4.20;99.90
1702;DHT22;848;48.354;10.064;2023-03-01T12:31:36;4.30;99.90
1702;DHT22;848;48.354;10.064;2023-03-01T12:34:15;4.30;99.90
1702;DHT22;848;48.354;10.064;2023-03-01T12:36:57;4.50;99.90
1702;DHT22;848;48.354;10.064;2023-03-01T12:39:42;4.60;99.90
1702;DHT22;848;48.354;10.064;2023-03-01T12:42:17;4.70;99.90
1702;DHT22;848;48.354;10.064;2023-03-01T12:45:01;4.70;99.90
1702;DHT22;848;48.354;10.064;2023-03-01T12:47:54;4.80;99.90
1702;DHT22;848;48.354;10.064;2023-03-01T12:50:31;4.80;99.90
1702;DHT22;848;48.354;10.064;2023-03-01T12:53:01;4.80;99.90
1702;DHT22;848;48.354;10.064;2023-03-01T12:55:31;4.90;99.90
1702;DHT22;848;48.354;10.064;2023-03-01T12:58:07;5.00;99.90
1702;DHT22;848;48.354;10.064;2023-03-01T13:00:48;5.10;99.90
1702;DHT22;848;48.354;10.064;2023-03-01T13:03:26;5.10;99.90
1702;DHT22;848;48.354;10.064;2023-03-01T13:06:04;5.10;99.90
1702;DHT22;848;48.354;10.064;2023-03-01T13:08:38;5.10;99.90
1702;DHT22;848;48.354;10.064;2023-03-01T13:11:15;5.10;99.90
1702;DHT22;848;48.354;10.064;2023-03-01T13:13:44;5.20;99.90
1702;DHT22;848;48.354;10.064;2023-03-01T13:16:39;5.10;99.90
1702;DHT22;848;48.354;10.064;2023-03-01T13:19:13;5.20;99.90
1702;DHT22;848;48.354;10.064;2023-03-01T13:21:41;5.20;99.90
1702;DHT22;848;48.354;10.064;2023-03-01T13:24:27;5.20;99.90
1702;DHT22;848;48.354;10.064;2023-03-01T13:27:20;5.30;99.90
1702;DHT22;848;48.354;10.064;2023-03-01T13:29:51;5.30;99.90
1702;DHT22;848;48.354;10.064;2023-03-01T13:32:22;5.40;99.90
1702;DHT22;848;48.354;10.064;2023-03-01T13:34:57;5.40;99.90
1702;DHT22;848;48.354;10.064;2023-03-01T13:37:36;5.50;99.90
1702;DHT22;848;48.354;10.064;2023-03-01T13:42:49;5.40;99.90
1702;DHT22;848;48.354;10.064;2023-03-01T13:45:22;5.50;99.90
1702;DHT22;848;48.354;10.064;2023-03-01T13:47:56;5.40;99.90
1702;DHT22;848;48.354;10.064;2023-03-01T13:50:27;5.40;99.90
1702;DHT22;848;48.354;10.064;2023-03-01T13:52:56;5.50;99.90
1702;DHT22;848;48.354;10.064;2023-03-01T13:55:28;5.40;99.90
1702;DHT22;848;48.354;10.064;2023-03-01T13:57:58;5.30;99.90
1702;DHT22;848;48.354;10.064;2023-03-01T14:00:28;5.40;99.90
1702;DHT22;848;48.354;10.064;2023-03-01T14:03:21;5.40;99.90
1702;DHT22;848;48.354;10.064;2023-03-01T14:05:59;5.40;99.90
1702;DHT22;848;48.354;10.064;2023-03-01T14:08:28;5.50;99.90
1702;DHT22;848;48.354;10.064;2023-03-01T14:11:13;5.60;99.90
1702;DHT22;848;48.354;10.064;2023-03-01T14:14:11;5.70;99.90
1702;DHT22;848;48.354;10.064;2023-03-01T14:16:46;5.70;99.90
1702;DHT22;848;48.354;10.064;2023-03-01T14:19:19;5.70;99.90
1702;DHT22;848;48.354;10.064;2023-03-01T14:21:59;5.70;99.90
1702;DHT22;848;48.354;10.064;2023-03-01T14:24:28;5.80;99.90
1702;DHT22;848;48.354;10.064;2023-03-01T14:26:56;5.80;99.90
1702;DHT22;848;48.354;10.064;2023-03-01T14:29:24;5.80;99.90
1702;DHT22;848;48.354;10.064;2023-03-01T14:31:51;5.80;99.90
1702;DHT22;848;48.354;10.064;2023-03-01T14:34:21;5.90;99.90
1702;DHT22;848;48.354;10.064;2023-03-01T14:36:49;5.90;99.90
1702;DHT22;848;48.354;10.064;2023-03-01T14:39:17;6.00;99.90
1702;DHT22;848;48.354;10.064;2023-03-01T14:41:44;6.00;99.90
1702;DHT22;848;48.354;10.064;2023-03-01T14:44:16;6.00;99.90
1702;DHT22;848;48.354;10.064;2023-03-01T14:46:45;6.00;99.90
1702;DHT22;848;48.354;10.064;2023-03-01T14:49:15;6.00;99.90
1702;DHT22;848;48.354;10.064;2023-03-01T14:51:50;6.00;99.90
1702;DHT22;848;48.354;10.064;2023-03-01T14:54:24;5.90;99.90
1702;DHT22;848;48.354;10.064;2023-03-01T14:56:53;5.90;99.90
1702;DHT22;848;48.354;10.064;2023-03-01T14:59:22;6.20;99.90
1702;DHT22;848;48.354;10.064;2023-03-01T15:01:51;6.10;99.90
1702;DHT22;848;48.354;10.064;2023-03-01T15:06:55;6.10;99.90
1702;DHT22;848;48.354;10.064;2023-03-01T15:09:31;6.00;99.90
1702;DHT22;848;48.354;10.064;2023-03-01T15:11:59;6.00;99.90
1702;DHT22;848;48.354;10.064;2023-03-01T15:14:27;6.00;99.90
1702;DHT22;848;48.354;10.064;2023-03-01T15:16:55;6.00;99.90
1702;DHT22;848;48.354;10.064;2023-03-01T15:19:24;6.20;99.90
1702;DHT22;848;48.354;10.064;2023-03-01T15:21:56;6.10;99.90
1702;DHT22;848;48.354;10.064;2023-03-01T15:24:25;6.10;99.90
1702;DHT22;848;48.354;10.064;2023-03-01T15:26:56;6.10;99.90
1702;DHT22;848;48.354;10.064;2023-03-01T15:29:25;6.10;99.90
1702;DHT22;848;48.354;10.064;2023-03-01T15:31:58;6.10;99.90
1702;DHT22;848;48.354;10.064;2023-03-01T15:34:26;6.10;99.90
1702;DHT22;848;48.354;10.064;2023-03-01T15:36:56;6.10;99.90
1702;DHT22;848;48.354;10.064;2023-03-01T15:39:37;6.10;99.90
1702;DHT22;848;48.354;10.064;2023-03-01T15:42:06;6.10;99.90
1702;DHT22;848;48.354;10.064;2023-03-01T15:44:35;6.00;99.90
1702;DHT22;848;48.354;10.064;2023-03-01T15:47:08;6.00;99.90
1702;DHT22;848;48.354;10.064;2023-03-01T15:49:48;6.00;99.90
1702;DHT22;848;48.354;10.064;2023-03-01T15:52:22;6.00;99.90
1702;DHT22;848;48.354;10.064;2023-03-01T15:54:55;6.00;99.90
1702;DHT22;848;48.354;10.064;2023-03-01T15:57:22;6.00;99.90
1702;DHT22;848;48.354;10.064;2023-03-01T15:59:48;5.90;99.90
1702;DHT22;848;48.354;10.064;2023-03-01T16:02:15;6.10;99.90
1702;DHT22;848;48.354;10.064;2023-03-01T16:04:42;5.90;99.90
1702;DHT22;848;48.354;10.064;2023-03-01T16:07:10;5.90;99.90
1702;DHT22;848;48.354;10.064;2023-03-01T16:09:38;5.90;99.90
1702;DHT22;848;48.354;10.064;2023-03-01T16:12:08;5.90;99.90
1702;DHT22;848;48.354;10.064;2023-03-01T16:14:39;5.90;99.90
1702;DHT22;848;48.354;10.064;2023-03-01T16:17:06;5.90;99.90
1702;DHT22;848;48.354;10.064;2023-03-01T16:19:35;5.80;99.90
1702;DHT22;848;48.354;10.064;2023-03-01T16:22:02;5.80;99.90
1702;DHT22;848;48.354;10.064;2023-03-01T16:24:29;5.80;99.90
1702;DHT22;848;48.354;10.064;2023-03-01T16:26:58;5.80;99.90
1702;DHT22;848;48.354;10.064;2023-03-01T16:29:25;5.80;99.90
1702;DHT22;848;48.354;10.064;2023-03-01T16:31:52;5.80;99.90
1702;DHT22;848;48.354;10.064;2023-03-01T16:34:19;5.70;99.90
1702;DHT22;848;48.354;10.064;2023-03-01T16:36:47;5.70;99.90
1702;DHT22;848;48.354;10.064;2023-03-01T16:39:14;5.70;99.90
1702;DHT22;848;48.354;10.064;2023-03-01T16:41:41;5.60;99.90
1702;DHT22;848;48.354;10.064;2023-03-01T16:44:10;5.60;99.90
1702;DHT22;848;48.354;10.064;2023-03-01T16:46:37;5.60;99.90
1702;DHT22;848;48.354;10.064;2023-03-01T16:49:03;5.50;99.90
1702;DHT22;848;48.354;10.064;2023-03-01T16:51:30;5.50;99.90
1702;DHT22;848;48.354;10.064;2023-03-01T16:54:00;5.70;99.90